Time;durP1;ratioP1;P1;durP2;ratioP2;P2;SDS_P1;SDS_P2;PMS_P1;PMS_P2;Temp;Humidity;BMP_temperature;BMP_pressure;BME280_temperature;BME280_humidity;BME280_pressure;Samples;Min_cycle;Max_cycle;Signal;HPM_P1;HPM_P2
2022/07/12 00:02:13;;;;;;;7.38;3.72;;;16.60;99.90;;;;;;5084226;28;37700;-57
2022/07/12 00:04:40;;;;;;;5.72;3.50;;;16.60;99.90;;;;;;5083527;28;37500;-58
2022/07/12 00:07:08;;;;;;;7.03;3.88;;;16.70;99.90;;;;;;5083596;28;36487;-57
2022/07/12 00:09:35;;;;;;;5.53;3.58;;;16.70;99.90;;;;;;5106333;28;36804;-57
2022/07/12 00:12:02;;;;;;;5.40;3.42;;;16.60;99.90;;;;;;5109963;28;37024;-58
2022/07/12 00:14:30;;;;;;;12.10;3.75;;;16.70;99.90;;;;;;5113810;28;37542;-57
2022/07/12 00:16:58;;;;;;;6.35;3.97;;;16.70;99.90;;;;;;5113802;28;38236;-58
2022/07/12 00:19:27;;;;;;;6.15;4.00;;;16.70;99.90;;;;;;5113720;28;38632;-57
2022/07/12 00:21:55;;;;;;;7.75;3.50;;;16.70;99.90;;;;;;5114893;28;36939;-57
2022/07/12 00:24:22;;;;;;;6.03;3.50;;;16.70;99.90;;;;;;5113996;28;39017;-57
2022/07/12 00:26:49;;;;;;;6.18;3.60;;;16.70;99.90;;;;;;5114870;28;39155;-58
2022/07/12 00:29:17;;;;;;;6.68;3.67;;;16.70;99.90;;;;;;5115027;28;37870;-60
2022/07/12 00:31:44;;;;;;;4.70;3.08;;;16.70;99.90;;;;;;5095333;28;36407;-59
2022/07/12 00:34:11;;;;;;;4.50;2.70;;;16.70;99.90;;;;;;5095638;28;38782;-60
2022/07/12 00:36:40;;;;;;;5.20;3.05;;;16.70;99.90;;;;;;5096815;28;37692;-60
2022/07/12 00:39:08;;;;;;;6.05;3.83;;;16.70;99.90;;;;;;5116107;28;39067;-60
2022/07/12 00:41:35;;;;;;;6.82;3.20;;;16.70;99.90;;;;;;5115135;28;37056;-59
2022/07/12 00:44:02;;;;;;;5.30;3.05;;;16.70;99.90;;;;;;5115252;28;38027;-60
2022/07/12 00:46:30;;;;;;;5.80;2.65;;;16.70;99.90;;;;;;5116433;28;38238;-60
2022/07/12 00:48:58;;;;;;;4.50;2.53;;;16.60;99.90;;;;;;5115609;28;37727;-60
2022/07/12 00:51:26;;;;;;;5.00;2.55;;;16.70;99.90;;;;;;5115221;28;36938;-60
2022/07/12 00:53:58;;;;;;;4.93;2.90;;;16.70;99.90;;;;;;5114784;28;38066;-59
2022/07/12 00:56:25;;;;;;;4.68;2.85;;;16.60;99.90;;;;;;5113714;28;38899;-60
2022/07/12 00:58:53;;;;;;;4.82;2.72;;;16.60;99.90;;;;;;5115209;28;38042;-60
2022/07/12 01:01:21;;;;;;;4.13;2.60;;;16.60;99.90;;;;;;5114553;28;37003;-61
2022/07/12 01:03:49;;;;;;;3.88;2.60;;;16.70;99.90;;;;;;5115734;28;38869;-60
2022/07/12 01:06:17;;;;;;;4.15;2.63;;;16.70;99.90;;;;;;5102961;28;38157;-59
2022/07/12 01:08:44;;;;;;;4.90;2.90;;;16.60;99.90;;;;;;5095583;28;38548;-60
2022/07/12 01:11:13;;;;;;;4.82;2.85;;;16.70;99.90;;;;;;5095223;28;36759;-60
2022/07/12 01:13:41;;;;;;;4.10;2.55;;;16.60;99.90;;;;;;5095401;28;38161;-60
2022/07/12 01:16:10;;;;;;;6.63;3.88;;;16.60;99.90;;;;;;5094579;28;38762;-59
2022/07/12 01:18:38;;;;;;;5.28;3.30;;;16.60;99.90;;;;;;5094670;28;37768;-60
2022/07/12 01:21:09;;;;;;;7.95;3.40;;;16.60;99.90;;;;;;5109828;28;37934;-60
2022/07/12 01:23:39;;;;;;;4.47;2.67;;;16.60;99.90;;;;;;5114020;28;38067;-61
2022/07/12 01:26:06;;;;;;;6.55;3.00;;;16.60;99.90;;;;;;5114543;28;37039;-60
2022/07/12 01:28:35;;;;;;;4.80;3.20;;;16.60;99.90;;;;;;5113091;28;38858;-59
2022/07/12 01:31:05;;;;;;;6.20;3.20;;;16.60;99.90;;;;;;5113459;27;37285;-60
2022/07/12 01:33:33;;;;;;;5.55;3.50;;;16.60;99.90;;;;;;5115175;28;38917;-60
2022/07/12 01:36:01;;;;;;;7.70;3.80;;;16.60;99.90;;;;;;5114028;28;38307;-60
2022/07/12 01:38:28;;;;;;;5.97;3.53;;;16.60;99.90;;;;;;5114346;28;37855;-60
2022/07/12 01:40:57;;;;;;;5.78;3.47;;;16.60;99.90;;;;;;5115140;28;37879;-59
2022/07/12 01:43:25;;;;;;;5.53;3.33;;;16.50;99.90;;;;;;5114407;28;39053;-60
2022/07/12 01:45:52;;;;;;;5.82;3.88;;;16.50;99.90;;;;;;5114529;28;38140;-60
2022/07/12 01:48:19;;;;;;;5.22;2.67;;;16.60;99.90;;;;;;5114400;28;37998;-60
2022/07/12 01:50:48;;;;;;;5.15;3.05;;;16.60;99.90;;;;;;5114456;28;37160;-60
2022/07/12 01:53:16;;;;;;;5.00;2.95;;;16.60;99.90;;;;;;5115062;28;39049;-60
2022/07/12 01:55:43;;;;;;;5.55;3.33;;;16.60;99.90;;;;;;5114730;28;39063;-60
2022/07/12 01:58:13;;;;;;;5.65;3.35;;;16.60;99.90;;;;;;5113875;28;38725;-60
2022/07/12 02:00:41;;;;;;;5.15;3.28;;;16.60;99.90;;;;;;5113776;28;37340;-60
2022/07/12 02:03:08;;;;;;;5.18;2.80;;;16.60;99.90;;;;;;5114762;28;38910;-60
2022/07/12 02:05:36;;;;;;;5.00;3.20;;;16.60;99.90;;;;;;5114666;28;38813;-60
2022/07/12 02:08:03;;;;;;;5.72;3.38;;;16.50;99.90;;;;;;5113966;28;37779;-61
2022/07/12 02:10:30;;;;;;;6.03;3.63;;;16.60;99.90;;;;;;5114400;28;37040;-60
2022/07/12 02:12:59;;;;;;;7.68;4.20;;;16.50;99.90;;;;;;5113708;28;37737;-60
2022/07/12 02:15:30;;;;;;;5.40;3.65;;;16.60;99.90;;;;;;5114646;28;38101;-61
2022/07/12 02:17:58;;;;;;;6.07;4.10;;;16.60;99.90;;;;;;5114446;28;37971;-60
2022/07/12 02:20:25;;;;;;;5.90;4.50;;;16.60;99.90;;;;;;5114413;28;37145;-60
2022/07/12 02:22:52;;;;;;;5.43;3.78;;;16.50;99.90;;;;;;5114138;28;39071;-60
2022/07/12 02:25:20;;;;;;;5.18;3.78;;;16.50;99.90;;;;;;5112650;28;38601;-59
2022/07/12 02:27:47;;;;;;;6.75;3.60;;;16.50;99.90;;;;;;5112057;28;37779;-60
2022/07/12 02:30:14;;;;;;;6.93;4.43;;;16.50;99.90;;;;;;5094122;28;37299;-60
2022/07/12 02:32:43;;;;;;;6.85;4.80;;;16.50;99.90;;;;;;5093626;28;38916;-60
2022/07/12 02:35:10;;;;;;;6.13;4.28;;;16.50;99.90;;;;;;5093616;28;39093;-60
2022/07/12 02:37:38;;;;;;;6.85;4.50;;;16.50;99.90;;;;;;5093151;28;37770;-60
2022/07/12 02:42:51;;;;;;;8.27;4.35;;;16.40;99.90;;;;;;5108643;28;38977;-60
2022/07/12 02:45:19;;;;;;;7.18;4.50;;;16.50;99.90;;;;;;5113707;28;39052;-60
2022/07/12 02:47:48;;;;;;;6.03;4.63;;;16.40;99.90;;;;;;5114189;28;37823;-60
2022/07/12 02:50:15;;;;;;;6.80;4.45;;;16.40;99.90;;;;;;5114060;28;37025;-60
2022/07/12 02:52:42;;;;;;;6.93;5.00;;;16.40;99.90;;;;;;5114211;28;37998;-61
2022/07/12 02:55:10;;;;;;;7.18;5.53;;;16.40;99.90;;;;;;5113084;28;39086;-60
2022/07/12 02:57:37;;;;;;;7.03;5.10;;;16.40;99.90;;;;;;5112248;27;38658;-60
2022/07/12 03:00:06;;;;;;;7.78;5.70;;;16.30;99.90;;;;;;5112169;28;37045;-60
2022/07/12 03:02:36;;;;;;;8.38;5.80;;;16.40;99.90;;;;;;5113137;28;38041;-60
2022/07/12 03:05:06;;;;;;;6.90;5.45;;;16.40;99.90;;;;;;5113940;28;38825;-60
2022/07/12 03:07:33;;;;;;;7.97;6.38;;;16.40;99.90;;;;;;5113309;28;38887;-60
2022/07/12 03:10:00;;;;;;;8.75;6.32;;;16.30;99.90;;;;;;5114005;28;37868;-60
2022/07/12 03:12:28;;;;;;;7.45;5.93;;;16.30;99.90;;;;;;5114172;28;38011;-60
2022/07/12 03:14:57;;;;;;;7.78;6.45;;;16.30;99.90;;;;;;5113834;28;38153;-60
2022/07/12 03:17:24;;;;;;;8.88;6.35;;;16.30;99.90;;;;;;5112556;28;37659;-60
2022/07/12 03:19:51;;;;;;;8.48;6.20;;;16.30;99.90;;;;;;5113773;28;37127;-60
2022/07/12 03:22:20;;;;;;;8.43;6.93;;;16.30;99.90;;;;;;5112879;28;38076;-60
2022/07/12 03:24:47;;;;;;;13.10;6.75;;;16.20;99.90;;;;;;5113555;28;38432;-60
2022/07/12 03:27:15;;;;;;;12.32;7.88;;;16.20;99.90;;;;;;5113251;28;38321;-60
2022/07/12 03:29:42;;;;;;;14.07;7.80;;;16.20;99.90;;;;;;5113907;28;37354;-60
2022/07/12 03:32:09;;;;;;;8.10;6.32;;;16.20;99.90;;;;;;5112887;28;38881;-60
2022/07/12 03:34:37;;;;;;;8.85;6.78;;;16.20;99.90;;;;;;5112645;28;37644;-60
2022/07/12 03:37:05;;;;;;;8.00;6.35;;;16.20;99.90;;;;;;5113300;28;37962;-60
2022/07/12 03:39:33;;;;;;;11.35;6.80;;;16.20;99.90;;;;;;5113381;28;36932;-60
2022/07/12 03:42:01;;;;;;;8.10;6.05;;;16.20;99.90;;;;;;5112235;28;38103;-60
2022/07/12 03:44:30;;;;;;;7.75;5.90;;;16.20;99.90;;;;;;5113925;28;38120;-60
2022/07/12 03:46:58;;;;;;;7.25;5.32;;;16.20;99.90;;;;;;5112435;28;37396;-60
2022/07/12 03:49:25;;;;;;;7.18;5.30;;;16.20;99.90;;;;;;5113376;28;36643;-60
2022/07/12 03:51:52;;;;;;;7.22;5.63;;;16.20;99.90;;;;;;5113518;28;38036;-60
2022/07/12 03:54:20;;;;;;;7.70;5.88;;;16.20;99.90;;;;;;5114483;28;39640;-60
2022/07/12 03:59:34;;;;;;;8.88;6.15;;;16.20;99.90;;;;;;5116633;28;38727;-60
2022/07/12 04:02:02;;;;;;;7.97;5.30;;;16.20;99.90;;;;;;5115879;28;38220;-60
2022/07/12 04:04:29;;;;;;;7.05;5.63;;;16.20;99.90;;;;;;5116605;28;39089;-60
2022/07/12 04:06:57;;;;;;;7.35;5.32;;;16.20;99.90;;;;;;5117016;28;37488;-60
2022/07/12 04:09:24;;;;;;;7.35;5.05;;;16.20;99.90;;;;;;5116686;28;36996;-60
2022/07/12 04:11:53;;;;;;;7.72;5.22;;;16.20;99.90;;;;;;5116846;28;38456;-60
2022/07/12 04:14:20;;;;;;;7.70;4.80;;;16.20;99.90;;;;;;5115788;28;39142;-60
2022/07/12 04:16:47;;;;;;;7.57;5.43;;;16.20;99.90;;;;;;5116193;28;38715;-60
2022/07/12 04:19:14;;;;;;;10.48;4.60;;;16.20;99.90;;;;;;5116468;28;37888;-60
2022/07/12 04:21:42;;;;;;;8.05;4.50;;;16.20;99.90;;;;;;5116929;28;37903;-60
2022/07/12 04:24:09;;;;;;;6.18;4.03;;;16.20;99.90;;;;;;5115571;28;38130;-60
2022/07/12 04:26:37;;;;;;;8.35;4.32;;;16.20;99.90;;;;;;5115738;28;37969;-60
2022/07/12 04:29:05;;;;;;;6.38;4.63;;;16.10;99.90;;;;;;5115782;28;37055;-60
2022/07/12 04:31:32;;;;;;;5.82;3.97;;;16.10;99.90;;;;;;5115738;28;37809;-60
2022/07/12 04:34:00;;;;;;;5.22;3.53;;;16.10;99.90;;;;;;5113536;28;38668;-60
2022/07/12 04:36:27;;;;;;;7.10;4.70;;;16.10;99.90;;;;;;5115442;28;38634;-60
2022/07/12 04:38:54;;;;;;;11.85;4.47;;;16.10;99.90;;;;;;5113959;28;37041;-60
2022/07/12 04:41:22;;;;;;;6.68;4.15;;;16.10;99.90;;;;;;5114865;28;38040;-61
2022/07/12 04:43:49;;;;;;;8.43;3.97;;;16.10;99.90;;;;;;5115275;28;39244;-61
2022/07/12 04:46:18;;;;;;;8.50;4.20;;;16.10;99.90;;;;;;5115550;28;38950;-60
2022/07/12 04:48:45;;;;;;;5.47;3.50;;;16.10;99.90;;;;;;5115320;28;37311;-60
2022/07/12 04:51:14;;;;;;;9.02;4.10;;;16.10;99.90;;;;;;5114929;28;38881;-60
2022/07/12 04:53:42;;;;;;;38.25;5.35;;;16.10;99.90;;;;;;5115035;28;38228;-60
2022/07/12 04:56:09;;;;;;;6.20;4.50;;;16.10;99.90;;;;;;5115644;28;37806;-60
2022/07/12 04:58:36;;;;;;;8.30;4.65;;;16.10;99.90;;;;;;5115879;28;38058;-60
2022/07/12 05:01:04;;;;;;;8.98;4.13;;;16.10;99.90;;;;;;5102475;28;39015;-60
2022/07/12 05:03:33;;;;;;;6.80;4.22;;;16.10;99.90;;;;;;5108831;28;39083;-60
2022/07/12 05:06:00;;;;;;;11.82;5.10;;;16.10;99.90;;;;;;5111375;28;37849;-60
2022/07/12 05:08:27;;;;;;;5.88;4.32;;;16.10;99.90;;;;;;5110285;28;36422;-60
2022/07/12 05:10:55;;;;;;;14.07;4.78;;;16.10;99.90;;;;;;5113946;28;38074;-61
2022/07/12 05:13:22;;;;;;;6.00;4.00;;;16.10;99.90;;;;;;5114534;28;38805;-58
2022/07/12 05:15:50;;;;;;;6.97;3.83;;;16.10;99.90;;;;;;5114246;28;37981;-58
2022/07/12 05:18:17;;;;;;;8.75;3.88;;;16.10;99.90;;;;;;5114498;28;37003;-59
2022/07/12 05:20:46;;;;;;;5.90;3.40;;;16.20;99.90;;;;;;5112436;28;38748;-58
2022/07/12 05:23:13;;;;;;;10.18;4.38;;;16.20;99.90;;;;;;5114627;28;38433;-58
2022/07/12 05:25:41;;;;;;;5.65;3.85;;;16.20;99.90;;;;;;5111416;28;37713;-58
2022/07/12 05:28:09;;;;;;;6.35;3.97;;;16.20;99.90;;;;;;5105084;28;35992;-58
2022/07/12 05:30:36;;;;;;;7.15;4.07;;;16.20;99.90;;;;;;5110119;28;37930;-58
2022/07/12 05:33:03;;;;;;;7.55;4.47;;;16.20;99.90;;;;;;5094781;28;38041;-58
2022/07/12 05:35:31;;;;;;;6.25;3.65;;;16.20;99.90;;;;;;5110112;28;38700;-58
2022/07/12 05:37:59;;;;;;;5.70;3.67;;;16.20;99.90;;;;;;5110018;28;36991;-58
2022/07/12 05:40:27;;;;;;;6.28;3.97;;;16.20;99.90;;;;;;5108577;28;37582;-58
2022/07/12 05:42:54;;;;;;;6.10;3.72;;;16.20;99.90;;;;;;5113299;28;38337;-58
2022/07/12 05:45:22;;;;;;;6.07;3.80;;;16.30;99.90;;;;;;5108736;28;37951;-61
2022/07/12 05:47:50;;;;;;;6.40;4.05;;;16.30;99.90;;;;;;5107497;28;37246;-58
2022/07/12 05:50:17;;;;;;;5.85;3.47;;;16.30;99.90;;;;;;5113941;28;39591;-59
2022/07/12 05:55:42;;;;;;;5.32;3.50;;;16.40;99.90;;;;;;5044964;28;38261;-58
2022/07/12 05:58:10;;;;;;;6.95;4.10;;;16.40;99.90;;;;;;5099173;28;37954;-58
2022/07/12 06:00:38;;;;;;;5.45;3.47;;;16.40;99.90;;;;;;5111829;28;37953;-59
2022/07/12 06:03:05;;;;;;;7.22;3.92;;;16.40;99.90;;;;;;5094074;28;38206;-59
2022/07/12 06:05:32;;;;;;;5.82;3.90;;;16.40;99.90;;;;;;5102804;28;37969;-59
2022/07/12 06:08:00;;;;;;;5.38;3.47;;;16.50;99.90;;;;;;5097501;28;36753;-59
2022/07/12 06:10:27;;;;;;;5.22;3.72;;;16.50;99.90;;;;;;5111732;28;38178;-58
2022/07/12 06:12:56;;;;;;;6.80;3.67;;;16.60;99.90;;;;;;5113906;28;38231;-58
2022/07/12 06:15:24;;;;;;;5.68;3.58;;;16.60;99.90;;;;;;5114106;28;37812;-59
2022/07/12 06:17:51;;;;;;;5.38;3.35;;;16.60;99.90;;;;;;5093568;28;37903;-59
2022/07/12 06:20:18;;;;;;;6.57;4.13;;;16.60;99.90;;;;;;5111156;28;38011;-59
2022/07/12 06:22:46;;;;;;;6.10;4.30;;;16.70;99.90;;;;;;5109512;28;37319;-59
2022/07/12 06:25:14;;;;;;;5.80;3.90;;;16.70;99.90;;;;;;5110040;28;39074;-59
2022/07/12 06:27:41;;;;;;;6.32;4.00;;;16.80;99.90;;;;;;5089690;28;37034;-58
2022/07/12 06:30:11;;;;;;;6.53;4.63;;;16.80;99.90;;;;;;5084849;28;36371;-58
2022/07/12 06:32:38;;;;;;;6.68;3.92;;;16.80;99.90;;;;;;5086527;28;38405;-59
2022/07/12 06:35:06;;;;;;;5.80;4.13;;;17.00;99.90;;;;;;5088234;28;37027;-59
2022/07/12 06:37:34;;;;;;;7.75;3.90;;;17.00;99.90;;;;;;5086914;28;36420;-59
2022/07/12 06:40:01;;;;;;;6.72;4.00;;;17.10;99.90;;;;;;5086877;28;37668;-58
2022/07/12 06:42:29;;;;;;;5.32;3.40;;;17.20;99.90;;;;;;5087405;28;37911;-59
2022/07/12 06:44:56;;;;;;;5.70;3.95;;;17.40;99.90;;;;;;5088390;28;37197;-59
2022/07/12 06:47:25;;;;;;;6.03;3.67;;;17.50;99.90;;;;;;5088760;28;36929;-59
2022/07/12 06:49:53;;;;;;;5.05;3.50;;;17.60;99.90;;;;;;5088871;28;37899;-58
2022/07/12 06:52:20;;;;;;;5.30;3.42;;;17.70;99.90;;;;;;5088868;28;37702;-59
2022/07/12 06:54:47;;;;;;;5.35;3.47;;;17.80;99.90;;;;;;5088388;28;36156;-58
2022/07/12 06:57:15;;;;;;;5.00;3.10;;;17.90;99.90;;;;;;5088674;28;39234;-58
2022/07/12 06:59:42;;;;;;;5.40;3.58;;;18.10;99.90;;;;;;5089307;28;37930;-58
2022/07/12 07:02:09;;;;;;;5.43;2.92;;;18.20;99.90;;;;;;5089314;28;37525;-59
2022/07/12 07:04:38;;;;;;;5.13;2.75;;;18.40;99.90;;;;;;5088141;28;38459;-59
2022/07/12 07:07:05;;;;;;;4.13;2.50;;;18.60;99.90;;;;;;5088591;28;36835;-59
2022/07/12 07:09:33;;;;;;;4.13;2.60;;;18.80;99.90;;;;;;5088843;28;38372;-58
2022/07/12 07:12:01;;;;;;;3.65;2.30;;;18.90;99.90;;;;;;5088274;28;38370;-58
2022/07/12 07:14:29;;;;;;;3.75;2.25;;;19.10;99.90;;;;;;5086620;28;37438;-58
2022/07/12 07:16:56;;;;;;;3.92;2.58;;;19.20;99.90;;;;;;5086189;28;37432;-59
2022/07/12 07:19:26;;;;;;;3.90;2.30;;;19.30;99.90;;;;;;5086766;28;38275;-58
2022/07/12 07:21:55;;;;;;;3.75;2.00;;;19.30;99.90;;;;;;5086966;28;37630;-59
2022/07/12 07:24:23;;;;;;;7.03;2.80;;;19.40;99.90;;;;;;5087078;28;37872;-59
2022/07/12 07:26:50;;;;;;;5.05;2.47;;;19.50;99.90;;;;;;5088143;28;36652;-59
2022/07/12 07:31:59;;;;;;;3.33;2.20;;;19.60;99.90;;;;;;5057852;28;40296;-59
2022/07/12 07:34:26;;;;;;;5.35;2.30;;;19.70;99.90;;;;;;5093229;28;36111;-59
2022/07/12 07:36:55;;;;;;;3.78;2.05;;;19.80;99.90;;;;;;5092506;28;36500;-59
2022/07/12 07:39:22;;;;;;;3.85;2.00;;;19.90;99.90;;;;;;5091573;28;40648;-59
2022/07/12 07:41:50;;;;;;;3.25;1.88;;;20.00;99.90;;;;;;5092820;28;37842;-59
2022/07/12 07:44:17;;;;;;;4.50;1.98;;;20.10;99.90;;;;;;5091557;28;37100;-59
2022/07/12 07:46:44;;;;;;;5.32;1.95;;;20.20;99.90;;;;;;5090035;28;36702;-60
2022/07/12 07:49:12;;;;;;;3.85;2.30;;;20.30;99.90;;;;;;5091519;28;38341;-59
2022/07/12 07:51:39;;;;;;;3.63;2.30;;;20.30;99.90;;;;;;5091035;28;36573;-60
2022/07/12 07:54:08;;;;;;;6.15;2.30;;;20.40;99.90;;;;;;5091168;28;38361;-60
2022/07/12 07:56:37;;;;;;;4.00;1.88;;;20.50;99.90;;;;;;5090154;28;38048;-59
2022/07/12 07:59:05;;;;;;;3.20;1.90;;;20.50;99.90;;;;;;5090722;28;36534;-60
2022/07/12 08:01:46;;;;;;;2.92;1.70;;;20.60;99.90;;;;;;5090391;28;37583;-60
2022/07/12 08:04:14;;;;;;;4.03;1.48;;;20.60;99.90;;;;;;5091935;28;39121;-60
2022/07/12 08:06:42;;;;;;;2.47;1.60;;;20.60;99.90;;;;;;5090898;28;38982;-61
2022/07/12 08:09:12;;;;;;;3.17;1.90;;;20.60;99.90;;;;;;5089221;28;37529;-60
2022/07/12 08:11:43;;;;;;;2.92;1.70;;;20.70;99.90;;;;;;5089523;28;38916;-60
2022/07/12 08:14:12;;;;;;;4.25;1.80;;;20.60;99.90;;;;;;5088813;28;38643;-60
2022/07/12 08:16:40;;;;;;;2.67;1.63;;;20.60;99.90;;;;;;5089445;28;37159;-61
2022/07/12 08:19:07;;;;;;;4.20;1.92;;;20.60;99.90;;;;;;5087783;28;37465;-60
2022/07/12 08:21:35;;;;;;;2.28;1.45;;;20.60;99.90;;;;;;5087746;28;38912;-60
2022/07/12 08:24:02;;;;;;;4.18;1.60;;;20.60;99.90;;;;;;5089793;28;36121;-59
2022/07/12 08:26:31;;;;;;;3.40;1.70;;;20.60;99.90;;;;;;5090534;28;36214;-59
2022/07/12 08:28:59;;;;;;;2.85;1.35;;;20.60;99.90;;;;;;5088246;28;36310;-59
2022/07/12 08:31:26;;;;;;;2.78;1.65;;;20.60;99.90;;;;;;5089465;28;39167;-59
2022/07/12 08:33:53;;;;;;;3.40;1.60;;;20.70;99.90;;;;;;5090367;28;39314;-59
2022/07/12 08:36:20;;;;;;;6.03;1.70;;;20.70;99.90;;;;;;5090363;28;36013;-59
2022/07/12 08:38:48;;;;;;;2.25;1.42;;;20.80;99.90;;;;;;5088664;27;39421;-59
2022/07/12 08:41:16;;;;;;;4.55;1.70;;;20.80;99.90;;;;;;5089993;28;36441;-59
2022/07/12 08:43:45;;;;;;;3.22;1.85;;;20.80;99.90;;;;;;5090325;28;37234;-60
2022/07/12 08:46:13;;;;;;;3.85;2.15;;;20.90;99.90;;;;;;5091800;28;35341;-59
2022/07/12 08:48:43;;;;;;;3.05;1.77;;;20.90;99.90;;;;;;5091088;28;37447;-59
2022/07/12 08:51:13;;;;;;;4.22;1.60;;;20.90;99.90;;;;;;5089947;28;37822;-59
2022/07/12 08:53:40;;;;;;;3.60;1.83;;;21.00;99.90;;;;;;5090295;28;37178;-61
2022/07/12 08:56:28;;;;;;;3.70;1.98;;;21.10;99.90;;;;;;5089350;28;37819;-59
2022/07/12 08:59:13;;;;;;;3.25;1.80;;;21.10;99.90;;;;;;5089816;28;38661;-59
2022/07/12 09:01:43;;;;;;;2.83;1.85;;;21.30;99.90;;;;;;5090645;28;38423;-59
2022/07/12 09:04:11;;;;;;;2.78;1.83;;;21.30;99.90;;;;;;5090262;28;37559;-59
2022/07/12 09:06:38;;;;;;;2.90;1.58;;;21.40;99.90;;;;;;5089847;28;36503;-59
2022/07/12 09:09:08;;;;;;;4.05;1.75;;;21.50;99.90;;;;;;5090083;28;37727;-59
2022/07/12 09:11:37;;;;;;;4.82;1.80;;;21.60;99.90;;;;;;5090925;28;38465;-59
2022/07/12 09:14:05;;;;;;;3.33;1.73;;;21.60;99.90;;;;;;5090652;28;39987;-59
2022/07/12 09:16:33;;;;;;;4.28;1.60;;;21.70;99.90;;;;;;5091284;28;37428;-59
2022/07/12 09:19:15;;;;;;;4.65;2.10;;;21.80;99.90;;;;;;5089987;28;40329;-59
2022/07/12 09:21:50;;;;;;;3.85;2.00;;;21.90;99.90;;;;;;5090821;28;37428;-59
2022/07/12 09:24:18;;;;;;;4.10;1.88;;;21.90;99.90;;;;;;5090418;28;38173;-59
2022/07/12 09:26:46;;;;;;;5.72;1.80;;;21.90;99.90;;;;;;5090712;28;39435;-59
2022/07/12 09:29:14;;;;;;;3.30;1.73;;;21.80;99.90;;;;;;5088940;28;37807;-59
2022/07/12 09:37:15;;;;;;;3.55;1.65;;;21.70;99.90;;;;;;5090553;28;37720;-60
2022/07/12 09:39:43;;;;;;;4.15;2.00;;;21.70;99.90;;;;;;5090029;28;37536;-59
2022/07/12 09:42:12;;;;;;;3.30;2.00;;;21.80;99.90;;;;;;5090681;28;37332;-59
2022/07/12 09:44:40;;;;;;;5.70;2.25;;;21.90;99.90;;;;;;5090575;28;37917;-59
2022/07/12 09:47:12;;;;;;;4.90;2.38;;;21.90;99.90;;;;;;5090748;28;38314;-59
2022/07/12 09:49:40;;;;;;;4.15;2.30;;;22.00;99.90;;;;;;5091249;28;20052;-59
2022/07/12 09:52:11;;;;;;;4.55;2.20;;;22.10;99.90;;;;;;5089987;27;38526;-59
2022/07/12 09:54:41;;;;;;;3.08;1.80;;;22.20;99.90;;;;;;5091482;28;35963;-59
2022/07/12 09:57:18;;;;;;;3.80;1.92;;;22.30;99.90;;;;;;5089617;28;36609;-59
2022/07/12 09:59:47;;;;;;;4.53;1.77;;;22.40;99.90;;;;;;5089296;28;39047;-59
2022/07/12 10:02:17;;;;;;;2.95;1.90;;;22.50;99.90;;;;;;5090703;28;38051;-59
2022/07/12 10:04:46;;;;;;;5.05;2.20;;;22.70;99.90;;;;;;5089802;28;36201;-59
2022/07/12 10:07:15;;;;;;;2.95;1.58;;;22.80;99.90;;;;;;5089470;28;36724;-59
2022/07/12 10:09:45;;;;;;;4.03;1.52;;;22.90;99.90;;;;;;5089565;28;38484;-59
2022/07/12 10:12:13;;;;;;;3.08;1.45;;;23.00;99.90;;;;;;5089371;28;38497;-59
2022/07/12 10:14:42;;;;;;;2.95;1.30;;;23.10;99.90;;;;;;5090733;27;36776;-59
2022/07/12 10:17:10;;;;;;;3.45;1.50;;;23.30;99.90;;;;;;5089253;28;35154;-59
2022/07/12 10:19:39;;;;;;;3.15;1.35;;;23.30;99.90;;;;;;5089668;28;40018;-60
2022/07/12 10:22:07;;;;;;;4.68;1.77;;;23.40;99.90;;;;;;5089646;28;37714;-59
2022/07/12 10:24:49;;;;;;;2.17;1.20;;;23.50;99.90;;;;;;5089849;28;37376;-59
2022/07/12 10:27:33;;;;;;;2.30;1.00;;;23.50;99.90;;;;;;5086759;28;37897;-60
2022/07/12 10:30:21;;;;;;;3.55;1.80;;;23.50;99.90;;;;;;5085641;28;37519;-59
2022/07/12 10:32:52;;;;;;;7.68;1.98;;;23.50;99.90;;;;;;5085923;28;36707;-59
2022/07/12 10:35:22;;;;;;;4.53;1.70;;;23.50;99.90;;;;;;5086854;28;37468;-59
2022/07/12 10:38:31;;;;;;;2.42;1.10;;;23.60;99.90;;;;;;5086609;28;37597;-59
2022/07/12 10:41:16;;;;;;;4.53;1.60;;;23.60;99.90;;;;;;5086439;28;39516;-60
2022/07/12 10:46:28;;;;;;;2.45;0.80;;;23.70;99.70;;;;;;5087545;28;38667;-59
2022/07/12 10:49:26;;;;;;;3.22;0.80;;;23.80;98.80;;;;;;5087858;28;35449;-60
2022/07/12 10:52:16;;;;;;;1.85;1.00;;;23.80;98.80;;;;;;5087101;28;38351;-60
2022/07/12 10:54:50;;;;;;;2.15;1.10;;;23.90;98.90;;;;;;5085921;28;36617;-60
2022/07/12 10:57:17;;;;;;;4.20;1.38;;;23.90;98.80;;;;;;5085159;28;38031;-59
2022/07/12 10:59:51;;;;;;;3.33;1.30;;;23.80;99.00;;;;;;5087051;28;37651;-60
2022/07/12 11:02:22;;;;;;;3.17;1.30;;;23.80;99.20;;;;;;5087743;27;36332;-60
2022/07/12 11:04:49;;;;;;;1.50;1.13;;;23.90;99.00;;;;;;5090780;28;37715;-60
2022/07/12 11:07:19;;;;;;;1.83;0.80;;;23.80;98.50;;;;;;5089367;28;37360;-60
2022/07/12 11:09:52;;;;;;;2.88;1.20;;;23.80;98.40;;;;;;5090811;28;36574;-60
2022/07/12 11:12:19;;;;;;;2.20;1.05;;;23.80;98.30;;;;;;5090091;28;37616;-60
2022/07/12 11:14:47;;;;;;;6.22;1.30;;;23.80;98.40;;;;;;5090599;28;36633;-60
2022/07/12 11:17:14;;;;;;;1.67;0.93;;;23.80;98.30;;;;;;5090316;28;38479;-60
2022/07/12 11:19:42;;;;;;;2.00;1.10;;;23.80;98.30;;;;;;5087281;27;37421;-60
2022/07/12 11:22:09;;;;;;;3.00;0.90;;;23.80;98.00;;;;;;5087859;28;36230;-60
2022/07/12 11:24:39;;;;;;;2.95;1.00;;;23.70;98.40;;;;;;5087135;27;38496;-60
2022/07/12 11:27:14;;;;;;;1.77;1.00;;;23.70;98.50;;;;;;5086653;27;37009;-60
2022/07/12 11:29:56;;;;;;;1.27;0.95;;;23.70;98.90;;;;;;5086323;27;37542;-60
2022/07/12 11:32:34;;;;;;;3.17;0.93;;;23.80;98.70;;;;;;5085980;28;38027;-60
2022/07/12 11:35:02;;;;;;;0.85;0.60;;;23.90;98.90;;;;;;5087481;28;40493;-60
2022/07/12 11:37:32;;;;;;;1.63;0.93;;;23.90;98.50;;;;;;5078333;28;37162;-60
2022/07/12 11:40:01;;;;;;;3.63;1.08;;;23.90;97.80;;;;;;5083121;28;35461;-60
2022/07/12 11:42:28;;;;;;;5.32;1.13;;;24.00;97.40;;;;;;5084131;28;36583;-60
2022/07/12 11:44:55;;;;;;;5.10;1.40;;;24.10;97.50;;;;;;5084874;28;38131;-60
2022/07/12 11:47:23;;;;;;;2.50;0.93;;;24.10;98.10;;;;;;5085602;28;37862;-60
2022/07/12 11:49:52;;;;;;;2.08;0.90;;;24.20;98.50;;;;;;5084854;27;36656;-60
2022/07/12 11:52:22;;;;;;;2.15;0.82;;;24.40;98.50;;;;;;5086116;28;38563;-60
2022/07/12 11:54:51;;;;;;;2.03;0.60;;;24.40;97.60;;;;;;5084994;28;37109;-60
2022/07/12 11:57:22;;;;;;;2.47;0.77;;;24.40;96.30;;;;;;5084065;28;36396;-60
2022/07/12 11:59:50;;;;;;;1.42;0.90;;;24.40;94.90;;;;;;5084599;28;35691;-60
2022/07/12 12:02:18;;;;;;;2.75;0.98;;;24.40;94.90;;;;;;5084926;28;38723;-60
2022/07/12 12:04:46;;;;;;;2.45;1.02;;;24.40;95.60;;;;;;5085559;28;37870;-60
2022/07/12 12:07:16;;;;;;;2.15;0.93;;;24.50;96.10;;;;;;5085425;28;37239;-60
2022/07/12 12:10:03;;;;;;;1.92;0.70;;;24.50;96.20;;;;;;5084747;28;38199;-60
2022/07/12 12:12:40;;;;;;;2.83;1.20;;;24.50;95.40;;;;;;5085264;28;37491;-60
2022/07/12 12:15:09;;;;;;;1.15;0.82;;;24.60;96.10;;;;;;5083866;28;38044;-60
2022/07/12 12:17:37;;;;;;;3.10;1.30;;;24.60;96.40;;;;;;5085513;28;38084;-60
2022/07/12 12:20:13;;;;;;;3.35;1.30;;;24.60;95.90;;;;;;5085112;28;37342;-60
2022/07/12 12:22:41;;;;;;;2.42;0.90;;;24.70;96.50;;;;;;5086178;28;38050;-60
2022/07/12 12:25:13;;;;;;;2.80;1.13;;;24.70;96.60;;;;;;5086363;28;37703;-60
2022/07/12 12:27:46;;;;;;;1.20;0.80;;;24.70;96.70;;;;;;5084575;28;36625;-60
2022/07/12 12:30:14;;;;;;;2.88;1.42;;;24.70;97.30;;;;;;5083653;28;36065;-60
2022/07/12 12:32:46;;;;;;;2.38;1.13;;;24.70;97.50;;;;;;5084824;28;38914;-60
2022/07/12 12:35:15;;;;;;;2.28;1.10;;;24.80;97.80;;;;;;5086278;28;37216;-61
2022/07/12 12:37:52;;;;;;;4.15;1.20;;;24.80;97.80;;;;;;5083380;28;38179;-61
2022/07/12 12:40:21;;;;;;;5.47;1.20;;;24.80;97.20;;;;;;5082613;28;37511;-60
2022/07/12 12:42:50;;;;;;;3.15;1.50;;;24.80;97.20;;;;;;5082414;28;35624;-60
2022/07/12 12:45:23;;;;;;;4.47;1.52;;;24.70;97.00;;;;;;5082492;28;37685;-60
2022/07/12 12:47:58;;;;;;;4.25;1.63;;;24.70;96.20;;;;;;5083378;28;38066;-60
2022/07/12 12:50:43;;;;;;;7.43;2.30;;;24.70;96.60;;;;;;5085284;28;40418;-60
2022/07/12 12:53:16;;;;;;;4.22;1.70;;;24.70;96.90;;;;;;5083755;28;36281;-60
2022/07/12 12:55:45;;;;;;;2.97;1.50;;;24.70;96.90;;;;;;5083956;28;38553;-60
2022/07/12 12:58:15;;;;;;;3.33;1.33;;;24.70;97.00;;;;;;5083592;28;38149;-60
2022/07/12 13:00:43;;;;;;;7.72;2.15;;;24.70;96.20;;;;;;5083618;28;36562;-60
2022/07/12 13:03:12;;;;;;;2.47;0.90;;;24.70;96.40;;;;;;5084434;28;38391;-60
2022/07/12 13:05:40;;;;;;;2.72;0.98;;;24.70;96.70;;;;;;5083921;28;37812;-60
2022/07/12 13:08:10;;;;;;;3.83;1.23;;;24.70;95.40;;;;;;5082949;28;38801;-60
2022/07/12 13:10:38;;;;;;;3.28;0.90;;;24.70;95.30;;;;;;5081410;28;37492;-60
2022/07/12 13:13:06;;;;;;;2.03;0.90;;;24.70;95.70;;;;;;5081791;28;38883;-60
2022/07/12 13:15:36;;;;;;;1.88;0.75;;;24.70;95.40;;;;;;5082803;28;38316;-60